sensor_id;sensor_type;location;lat;lon;timestamp;pressure;altitude;pressure_sealevel;temperature;humidity
61573;BME280;47465;43.094;12.434;2022-07-23T00:01:16;98782.03;;;27.46;38.60
61573;BME280;47465;43.094;12.434;2022-07-23T00:03:42;98788.34;;;27.47;38.82
61573;BME280;47465;43.094;12.434;2022-07-23T00:06:08;98779.91;;;27.40;38.86
61573;BME280;47465;43.094;12.434;2022-07-23T00:08:33;98787.78;;;27.43;38.80
61573;BME280;47465;43.094;12.434;2022-07-23T00:10:59;98787.06;;;27.41;39.13
61573;BME280;47465;43.094;12.434;2022-07-23T00:13:26;98788.50;;;27.45;39.73
61573;BME280;47465;43.094;12.434;2022-07-23T00:15:53;98775.75;;;27.36;39.50
61573;BME280;47465;43.094;12.434;2022-07-23T00:18:19;98788.09;;;27.40;39.69
61573;BME280;47465;43.094;12.434;2022-07-23T00:20:44;98782.81;;;27.29;39.66
61573;BME280;47465;43.094;12.434;2022-07-23T00:23:10;98777.19;;;27.20;40.38
61573;BME280;47465;43.094;12.434;2022-07-23T00:25:36;98767.16;;;27.11;40.11
61573;BME280;47465;43.094;12.434;2022-07-23T00:28:03;98799.16;;;27.19;40.38
61573;BME280;47465;43.094;12.434;2022-07-23T00:30:30;98792.28;;;27.15;40.71
61573;BME280;47465;43.094;12.434;2022-07-23T00:33:00;98803.19;;;27.15;41.04
61573;BME280;47465;43.094;12.434;2022-07-23T00:35:28;98795.75;;;27.07;41.25
61573;BME280;47465;43.094;12.434;2022-07-23T00:37:54;98789.56;;;27.05;41.46
61573;BME280;47465;43.094;12.434;2022-07-23T00:40:21;98784.72;;;26.89;41.63
61573;BME280;47465;43.094;12.434;2022-07-23T00:42:47;98788.72;;;26.75;42.31
61573;BME280;47465;43.094;12.434;2022-07-23T00:45:13;98772.63;;;26.53;42.51
61573;BME280;47465;43.094;12.434;2022-07-23T00:47:39;98792.16;;;26.58;42.86
61573;BME280;47465;43.094;12.434;2022-07-23T00:50:08;98796.28;;;26.52;43.10
61573;BME280;47465;43.094;12.434;2022-07-23T00:52:35;98797.72;;;26.37;43.63
61573;BME280;47465;43.094;12.434;2022-07-23T00:55:01;98766.84;;;26.17;44.06
61573;BME280;47465;43.094;12.434;2022-07-23T00:57:27;98775.13;;;26.06;43.93
61573;BME280;47465;43.094;12.434;2022-07-23T00:59:53;98776.44;;;26.11;44.17
61573;BME280;47465;43.094;12.434;2022-07-23T01:02:19;98783.19;;;26.07;44.53
61573;BME280;47465;43.094;12.434;2022-07-23T01:04:45;98775.69;;;25.99;44.38
61573;BME280;47465;43.094;12.434;2022-07-23T01:07:12;98770.94;;;25.92;44.89
61573;BME280;47465;43.094;12.434;2022-07-23T01:09:38;98773.94;;;25.89;45.09
61573;BME280;47465;43.094;12.434;2022-07-23T01:12:04;98761.25;;;25.78;45.39
61573;BME280;47465;43.094;12.434;2022-07-23T01:14:30;98767.84;;;25.75;45.59
61573;BME280;47465;43.094;12.434;2022-07-23T01:16:56;98771.72;;;25.73;45.79
61573;BME280;47465;43.094;12.434;2022-07-23T01:19:22;98780.59;;;25.75;46.15
61573;BME280;47465;43.094;12.434;2022-07-23T01:21:49;98786.31;;;25.72;46.38
61573;BME280;47465;43.094;12.434;2022-07-23T01:24:17;98778.84;;;25.64;46.68
61573;BME280;47465;43.094;12.434;2022-07-23T01:26:46;98774.22;;;25.55;46.70
61573;BME280;47465;43.094;12.434;2022-07-23T01:29:12;98754.78;;;25.38;47.12
61573;BME280;47465;43.094;12.434;2022-07-23T01:31:39;98768.53;;;25.37;47.29
61573;BME280;47465;43.094;12.434;2022-07-23T01:34:05;98744.53;;;25.21;47.64
61573;BME280;47465;43.094;12.434;2022-07-23T01:36:32;98765.03;;;25.25;47.84
61573;BME280;47465;43.094;12.434;2022-07-23T01:38:58;98758.06;;;25.11;47.85
61573;BME280;47465;43.094;12.434;2022-07-23T01:41:25;98777.22;;;25.10;48.27
61573;BME280;47465;43.094;12.434;2022-07-23T01:43:51;98750.31;;;24.86;48.62
61573;BME280;47465;43.094;12.434;2022-07-23T01:46:17;98757.13;;;24.80;49.09
61573;BME280;47465;43.094;12.434;2022-07-23T01:48:42;98759.63;;;24.72;49.32
61573;BME280;47465;43.094;12.434;2022-07-23T01:51:08;98755.50;;;24.56;49.77
61573;BME280;47465;43.094;12.434;2022-07-23T01:53:34;98753.44;;;24.37;50.36
61573;BME280;47465;43.094;12.434;2022-07-23T01:56:00;98752.97;;;24.32;50.45
61573;BME280;47465;43.094;12.434;2022-07-23T01:58:27;98777.03;;;24.37;50.94
61573;BME280;47465;43.094;12.434;2022-07-23T02:00:54;98766.44;;;24.34;50.83
61573;BME280;47465;43.094;12.434;2022-07-23T02:03:21;98774.31;;;24.37;50.85
61573;BME280;47465;43.094;12.434;2022-07-23T02:05:47;98773.47;;;24.36;50.89
61573;BME280;47465;43.094;12.434;2022-07-23T02:08:13;98757.56;;;24.32;51.00
61573;BME280;47465;43.094;12.434;2022-07-23T02:10:39;98776.81;;;24.40;51.16
61573;BME280;47465;43.094;12.434;2022-07-23T02:13:05;98759.94;;;24.25;51.50
61573;BME280;47465;43.094;12.434;2022-07-23T02:15:33;98756.81;;;24.30;51.44
61573;BME280;47465;43.094;12.434;2022-07-23T02:17:59;98759.81;;;24.27;51.90
61573;BME280;47465;43.094;12.434;2022-07-23T02:20:25;98755.00;;;24.19;51.82
61573;BME280;47465;43.094;12.434;2022-07-23T02:22:51;98773.97;;;24.30;51.91
61573;BME280;47465;43.094;12.434;2022-07-23T02:25:17;98771.53;;;24.27;52.21
61573;BME280;47465;43.094;12.434;2022-07-23T02:27:43;98770.53;;;24.28;52.20
61573;BME280;47465;43.094;12.434;2022-07-23T02:30:10;98744.91;;;24.10;52.13
61573;BME280;47465;43.094;12.434;2022-07-23T02:32:37;98764.00;;;24.19;52.17
61573;BME280;47465;43.094;12.434;2022-07-23T02:35:05;98772.31;;;24.07;52.78
61573;BME280;47465;43.094;12.434;2022-07-23T02:37:31;98751.50;;;23.85;53.05
61573;BME280;47465;43.094;12.434;2022-07-23T02:39:57;98772.34;;;23.95;53.00
61573;BME280;47465;43.094;12.434;2022-07-23T02:42:23;98747.75;;;23.74;53.35
61573;BME280;47465;43.094;12.434;2022-07-23T02:44:49;98764.06;;;23.74;53.60
61573;BME280;47465;43.094;12.434;2022-07-23T02:47:15;98777.03;;;23.71;53.76
61573;BME280;47465;43.094;12.434;2022-07-23T02:49:42;98760.03;;;23.57;53.86
61573;BME280;47465;43.094;12.434;2022-07-23T02:52:08;98778.00;;;23.70;54.02
61573;BME280;47465;43.094;12.434;2022-07-23T02:54:35;98781.34;;;23.73;54.26
61573;BME280;47465;43.094;12.434;2022-07-23T02:57:01;98772.84;;;23.55;54.55
61573;BME280;47465;43.094;12.434;2022-07-23T02:59:27;98778.78;;;23.49;54.86
61573;BME280;47465;43.094;12.434;2022-07-23T03:01:53;98760.47;;;23.29;55.40
61573;BME280;47465;43.094;12.434;2022-07-23T03:04:19;98773.72;;;23.33;55.40
61573;BME280;47465;43.094;12.434;2022-07-23T03:06:46;98769.38;;;23.31;55.45
61573;BME280;47465;43.094;12.434;2022-07-23T03:09:12;98748.41;;;23.22;55.86
61573;BME280;47465;43.094;12.434;2022-07-23T03:11:38;98763.34;;;23.27;55.76
61573;BME280;47465;43.094;12.434;2022-07-23T03:14:04;98776.78;;;23.40;55.57
61573;BME280;47465;43.094;12.434;2022-07-23T03:16:30;98772.44;;;23.37;55.75
61573;BME280;47465;43.094;12.434;2022-07-23T03:18:55;98771.72;;;23.35;56.16
61573;BME280;47465;43.094;12.434;2022-07-23T03:21:21;98779.88;;;23.47;55.92
61573;BME280;47465;43.094;12.434;2022-07-23T03:23:48;98764.56;;;23.34;55.75
61573;BME280;47465;43.094;12.434;2022-07-23T03:26:14;98769.84;;;23.25;56.61
61573;BME280;47465;43.094;12.434;2022-07-23T03:28:40;98770.59;;;23.27;56.34
61573;BME280;47465;43.094;12.434;2022-07-23T03:31:05;98781.81;;;23.22;57.08
61573;BME280;47465;43.094;12.434;2022-07-23T03:33:31;98767.50;;;23.09;56.88
61573;BME280;47465;43.094;12.434;2022-07-23T03:35:57;98772.53;;;23.02;57.21
61573;BME280;47465;43.094;12.434;2022-07-23T03:38:23;98784.56;;;22.98;57.24
61573;BME280;47465;43.094;12.434;2022-07-23T03:40:50;98753.47;;;22.80;57.44
61573;BME280;47465;43.094;12.434;2022-07-23T03:43:16;98788.50;;;22.94;57.71
61573;BME280;47465;43.094;12.434;2022-07-23T03:45:42;98768.47;;;22.72;57.95
61573;BME280;47465;43.094;12.434;2022-07-23T03:48:07;98803.53;;;22.87;57.81
61573;BME280;47465;43.094;12.434;2022-07-23T03:50:33;98784.00;;;22.70;58.51
61573;BME280;47465;43.094;12.434;2022-07-23T03:53:00;98802.50;;;22.76;58.53
61573;BME280;47465;43.094;12.434;2022-07-23T03:55:26;98818.56;;;22.80;58.29
61573;BME280;47465;43.094;12.434;2022-07-23T03:57:53;98816.06;;;22.76;58.75
61573;BME280;47465;43.094;12.434;2022-07-23T04:00:19;98805.94;;;22.67;59.04
61573;BME280;47465;43.094;12.434;2022-07-23T04:02:45;98813.06;;;22.68;59.00
61573;BME280;47465;43.094;12.434;2022-07-23T04:05:12;98797.66;;;22.58;58.80
61573;BME280;47465;43.094;12.434;2022-07-23T04:07:38;98807.03;;;22.65;58.95
61573;BME280;47465;43.094;12.434;2022-07-23T04:10:05;98828.13;;;22.72;59.18
61573;BME280;47465;43.094;12.434;2022-07-23T04:12:31;98829.63;;;22.76;59.37
61573;BME280;47465;43.094;12.434;2022-07-23T04:14:58;98822.09;;;22.69;59.21
61573;BME280;47465;43.094;12.434;2022-07-23T04:17:24;98833.44;;;22.74;59.46
61573;BME280;47465;43.094;12.434;2022-07-23T04:19:50;98810.84;;;22.62;59.43
61573;BME280;47465;43.094;12.434;2022-07-23T04:22:16;98827.59;;;22.67;59.83
61573;BME280;47465;43.094;12.434;2022-07-23T04:24:42;98835.00;;;22.65;60.59
61573;BME280;47465;43.094;12.434;2022-07-23T04:27:08;98819.09;;;22.61;60.30
61573;BME280;47465;43.094;12.434;2022-07-23T04:29:34;98836.50;;;22.69;60.78
61573;BME280;47465;43.094;12.434;2022-07-23T04:32:01;98820.03;;;22.60;60.47
61573;BME280;47465;43.094;12.434;2022-07-23T04:34:27;98836.38;;;22.71;60.17
61573;BME280;47465;43.094;12.434;2022-07-23T04:36:53;98811.06;;;22.59;60.74
61573;BME280;47465;43.094;12.434;2022-07-23T04:39:19;98831.56;;;22.74;60.70
61573;BME280;47465;43.094;12.434;2022-07-23T04:41:45;98828.00;;;22.74;60.86
61573;BME280;47465;43.094;12.434;2022-07-23T04:44:11;98827.25;;;22.72;61.00
61573;BME280;47465;43.094;12.434;2022-07-23T04:46:38;98823.78;;;22.70;61.16
61573;BME280;47465;43.094;12.434;2022-07-23T04:49:05;98825.00;;;22.66;61.60
61573;BME280;47465;43.094;12.434;2022-07-23T04:51:31;98835.28;;;22.73;61.46
61573;BME280;47465;43.094;12.434;2022-07-23T04:53:56;98834.28;;;22.74;62.16
61573;BME280;47465;43.094;12.434;2022-07-23T04:56:22;98823.97;;;22.80;60.97
61573;BME280;47465;43.094;12.434;2022-07-23T04:58:48;98826.72;;;22.91;60.80
61573;BME280;47465;43.094;12.434;2022-07-23T05:01:14;98838.81;;;22.98;61.07
61573;BME280;47465;43.094;12.434;2022-07-23T05:03:40;98827.00;;;22.99;61.71
61573;BME280;47465;43.094;12.434;2022-07-23T05:06:07;98820.13;;;23.06;60.65
61573;BME280;47465;43.094;12.434;2022-07-23T05:08:33;98813.84;;;23.06;60.43
61573;BME280;47465;43.094;12.434;2022-07-23T05:10:58;98830.81;;;23.32;60.80
61573;BME280;47465;43.094;12.434;2022-07-23T05:13:24;98832.47;;;23.91;58.84
61573;BME280;47465;43.094;12.434;2022-07-23T05:15:50;98846.34;;;24.54;57.03
61573;BME280;47465;43.094;12.434;2022-07-23T05:18:16;98835.81;;;24.93;55.13
61573;BME280;47465;43.094;12.434;2022-07-23T05:20:42;98830.06;;;25.28;56.02
61573;BME280;47465;43.094;12.434;2022-07-23T05:23:09;98841.34;;;25.66;54.94
61573;BME280;47465;43.094;12.434;2022-07-23T05:25:35;98833.81;;;25.79;51.66
61573;BME280;47465;43.094;12.434;2022-07-23T05:28:01;98816.66;;;25.88;49.82
61573;BME280;47465;43.094;12.434;2022-07-23T05:30:27;98841.63;;;26.24;49.67
61573;BME280;47465;43.094;12.434;2022-07-23T05:32:52;98847.97;;;26.44;48.63
61573;BME280;47465;43.094;12.434;2022-07-23T05:35:18;98860.78;;;26.63;48.03
61573;BME280;47465;43.094;12.434;2022-07-23T05:37:44;98848.03;;;26.73;47.17
61573;BME280;47465;43.094;12.434;2022-07-23T05:40:12;98851.75;;;26.82;47.13
61573;BME280;47465;43.094;12.434;2022-07-23T05:42:39;98856.94;;;26.95;47.07
61573;BME280;47465;43.094;12.434;2022-07-23T05:45:06;98850.03;;;27.10;46.25
61573;BME280;47465;43.094;12.434;2022-07-23T05:47:39;98840.88;;;27.11;46.15
61573;BME280;47465;43.094;12.434;2022-07-23T05:50:06;98838.00;;;27.22;46.62
61573;BME280;47465;43.094;12.434;2022-07-23T05:52:31;98842.00;;;27.38;46.13
61573;BME280;47465;43.094;12.434;2022-07-23T05:54:57;98848.31;;;27.48;45.50
61573;BME280;47465;43.094;12.434;2022-07-23T05:57:24;98835.38;;;27.50;45.99
61573;BME280;47465;43.094;12.434;2022-07-23T05:59:50;98822.69;;;27.49;45.72
61573;BME280;47465;43.094;12.434;2022-07-23T06:02:16;98849.97;;;27.69;45.03
61573;BME280;47465;43.094;12.434;2022-07-23T06:04:42;98845.22;;;27.71;45.22
61573;BME280;47465;43.094;12.434;2022-07-23T06:07:07;98832.31;;;27.63;45.06
61573;BME280;47465;43.094;12.434;2022-07-23T06:09:33;98837.31;;;27.68;44.86
61573;BME280;47465;43.094;12.434;2022-07-23T06:11:59;98847.94;;;27.80;44.77
61573;BME280;47465;43.094;12.434;2022-07-23T06:14:26;98836.13;;;27.80;44.31
61573;BME280;47465;43.094;12.434;2022-07-23T06:16:52;98848.47;;;27.84;44.67
61573;BME280;47465;43.094;12.434;2022-07-23T06:19:18;98852.06;;;27.94;44.52
61573;BME280;47465;43.094;12.434;2022-07-23T06:21:43;98842.31;;;27.92;44.42
61573;BME280;47465;43.094;12.434;2022-07-23T06:24:09;98850.56;;;28.10;44.34
61573;BME280;47465;43.094;12.434;2022-07-23T06:26:35;98841.38;;;28.11;43.92
61573;BME280;47465;43.094;12.434;2022-07-23T06:29:01;98855.81;;;28.21;43.82
61573;BME280;47465;43.094;12.434;2022-07-23T06:31:28;98855.78;;;28.31;44.17
61573;BME280;47465;43.094;12.434;2022-07-23T06:33:54;98836.63;;;28.31;44.00
61573;BME280;47465;43.094;12.434;2022-07-23T06:36:20;98843.34;;;28.36;43.36
61573;BME280;47465;43.094;12.434;2022-07-23T06:38:46;98858.13;;;28.53;42.92
61573;BME280;47465;43.094;12.434;2022-07-23T06:41:11;98854.06;;;28.57;43.31
61573;BME280;47465;43.094;12.434;2022-07-23T06:43:37;98861.03;;;28.70;43.09
61573;BME280;47465;43.094;12.434;2022-07-23T06:46:04;98865.44;;;28.80;42.98
61573;BME280;47465;43.094;12.434;2022-07-23T06:48:31;98844.38;;;28.81;43.29
61573;BME280;47465;43.094;12.434;2022-07-23T06:50:57;98858.16;;;29.07;42.98
61573;BME280;47465;43.094;12.434;2022-07-23T06:53:23;98846.91;;;29.10;42.57
61573;BME280;47465;43.094;12.434;2022-07-23T06:55:48;98860.81;;;29.17;42.77
61573;BME280;47465;43.094;12.434;2022-07-23T06:58:14;98866.38;;;29.25;42.67
61573;BME280;47465;43.094;12.434;2022-07-23T07:00:41;98846.75;;;29.12;42.80
61573;BME280;47465;43.094;12.434;2022-07-23T07:03:06;98852.16;;;29.21;42.61
61573;BME280;47465;43.094;12.434;2022-07-23T07:05:33;98845.78;;;29.21;42.45
61573;BME280;47465;43.094;12.434;2022-07-23T07:07:59;98836.25;;;29.25;42.77
61573;BME280;47465;43.094;12.434;2022-07-23T07:10:25;98853.81;;;29.40;42.27
61573;BME280;47465;43.094;12.434;2022-07-23T07:12:51;98853.41;;;29.53;41.83
61573;BME280;47465;43.094;12.434;2022-07-23T07:15:16;98845.34;;;29.69;42.67
61573;BME280;47465;43.094;12.434;2022-07-23T07:17:43;98837.16;;;29.78;41.75
61573;BME280;47465;43.094;12.434;2022-07-23T07:20:10;98854.06;;;29.99;41.53
61573;BME280;47465;43.094;12.434;2022-07-23T07:22:37;98846.25;;;30.13;41.05
61573;BME280;47465;43.094;12.434;2022-07-23T07:25:03;98836.69;;;30.25;40.94
61573;BME280;47465;43.094;12.434;2022-07-23T07:27:29;98844.97;;;30.33;40.18
61573;BME280;47465;43.094;12.434;2022-07-23T07:29:55;98835.56;;;30.36;40.40
61573;BME280;47465;43.094;12.434;2022-07-23T07:32:21;98827.25;;;30.27;39.84
61573;BME280;47465;43.094;12.434;2022-07-23T07:34:47;98850.00;;;30.46;39.66
61573;BME280;47465;43.094;12.434;2022-07-23T07:37:12;98832.03;;;30.17;39.66
61573;BME280;47465;43.094;12.434;2022-07-23T07:39:39;98828.69;;;30.32;39.77
61573;BME280;47465;43.094;12.434;2022-07-23T07:42:05;98835.78;;;30.16;40.28
61573;BME280;47465;43.094;12.434;2022-07-23T07:44:31;98832.94;;;30.26;40.58
61573;BME280;47465;43.094;12.434;2022-07-23T07:46:57;98821.03;;;30.43;40.12
61573;BME280;47465;43.094;12.434;2022-07-23T07:49:23;98820.56;;;30.64;38.82
61573;BME280;47465;43.094;12.434;2022-07-23T07:51:49;98833.84;;;31.02;38.30
61573;BME280;47465;43.094;12.434;2022-07-23T07:54:15;98817.00;;;31.13;37.99
61573;BME280;47465;43.094;12.434;2022-07-23T07:56:42;98825.75;;;31.41;36.55
61573;BME280;47465;43.094;12.434;2022-07-23T07:59:08;98818.22;;;31.51;36.69
61573;BME280;47465;43.094;12.434;2022-07-23T08:01:34;98804.66;;;31.50;36.31
61573;BME280;47465;43.094;12.434;2022-07-23T08:04:00;98811.50;;;31.62;36.01
61573;BME280;47465;43.094;12.434;2022-07-23T08:06:25;98840.47;;;31.81;36.51
61573;BME280;47465;43.094;12.434;2022-07-23T08:08:51;98802.41;;;31.37;36.06
61573;BME280;47465;43.094;12.434;2022-07-23T08:11:17;98816.50;;;31.42;36.33
61573;BME280;47465;43.094;12.434;2022-07-23T08:13:44;98826.63;;;31.17;37.49
61573;BME280;47465;43.094;12.434;2022-07-23T08:16:10;98816.84;;;31.15;37.73
61573;BME280;47465;43.094;12.434;2022-07-23T08:18:36;98820.09;;;31.51;36.40
61573;BME280;47465;43.094;12.434;2022-07-23T08:21:02;98815.91;;;31.80;35.47
61573;BME280;47465;43.094;12.434;2022-07-23T08:23:30;98824.84;;;31.82;34.69
61573;BME280;47465;43.094;12.434;2022-07-23T08:25:57;98814.59;;;31.59;34.52
61573;BME280;47465;43.094;12.434;2022-07-23T08:28:23;98822.06;;;31.98;34.34
61573;BME280;47465;43.094;12.434;2022-07-23T08:30:50;98818.81;;;31.86;34.92
61573;BME280;47465;43.094;12.434;2022-07-23T08:33:17;98814.50;;;32.00;34.29
61573;BME280;47465;43.094;12.434;2022-07-23T08:35:45;98816.41;;;32.31;33.36
61573;BME280;47465;43.094;12.434;2022-07-23T08:38:13;98814.72;;;32.30;32.01
61573;BME280;47465;43.094;12.434;2022-07-23T08:40:41;98816.09;;;31.70;32.72
61573;BME280;47465;43.094;12.434;2022-07-23T08:43:08;98798.41;;;31.72;31.53
61573;BME280;47465;43.094;12.434;2022-07-23T08:45:36;98819.66;;;32.03;33.73
61573;BME280;47465;43.094;12.434;2022-07-23T08:48:04;98819.78;;;32.49;33.40
61573;BME280;47465;43.094;12.434;2022-07-23T08:50:30;98816.53;;;32.77;31.61
61573;BME280;47465;43.094;12.434;2022-07-23T08:52:58;98804.28;;;32.80;31.90
61573;BME280;47465;43.094;12.434;2022-07-23T08:55:25;98801.63;;;31.84;32.92
61573;BME280;47465;43.094;12.434;2022-07-23T08:57:52;98791.72;;;31.67;33.83
61573;BME280;47465;43.094;12.434;2022-07-23T09:00:20;98807.00;;;31.69;34.09
61573;BME280;47465;43.094;12.434;2022-07-23T09:02:48;98792.28;;;32.10;34.27
61573;BME280;47465;43.094;12.434;2022-07-23T09:05:18;98790.69;;;32.16;33.04
61573;BME280;47465;43.094;12.434;2022-07-23T09:08:04;98817.28;;;31.84;32.65
61573;BME280;47465;43.094;12.434;2022-07-23T09:10:42;98798.06;;;32.23;31.79
61573;BME280;47465;43.094;12.434;2022-07-23T09:13:23;98810.75;;;32.64;32.16
61573;BME280;47465;43.094;12.434;2022-07-23T09:15:50;98810.03;;;32.93;30.84
61573;BME280;47465;43.094;12.434;2022-07-23T09:18:16;98818.91;;;32.80;30.52
61573;BME280;47465;43.094;12.434;2022-07-23T09:20:44;98809.94;;;33.09;30.48
61573;BME280;47465;43.094;12.434;2022-07-23T09:23:10;98807.81;;;33.34;29.76
61573;BME280;47465;43.094;12.434;2022-07-23T09:25:36;98811.91;;;33.39;29.62
61573;BME280;47465;43.094;12.434;2022-07-23T09:28:02;98801.06;;;33.75;28.74
61573;BME280;47465;43.094;12.434;2022-07-23T09:30:30;98816.56;;;34.06;27.38
61573;BME280;47465;43.094;12.434;2022-07-23T09:33:07;98805.34;;;34.07;27.23
61573;BME280;47465;43.094;12.434;2022-07-23T09:35:50;98783.16;;;34.15;28.08
61573;BME280;47465;43.094;12.434;2022-07-23T09:38:17;98814.41;;;34.52;27.44
61573;BME280;47465;43.094;12.434;2022-07-23T09:40:43;98788.34;;;34.55;26.86
61573;BME280;47465;43.094;12.434;2022-07-23T09:43:09;98795.00;;;34.82;26.13
61573;BME280;47465;43.094;12.434;2022-07-23T09:45:35;98793.38;;;34.88;26.11
61573;BME280;47465;43.094;12.434;2022-07-23T09:48:11;98791.28;;;34.90;25.60
61573;BME280;47465;43.094;12.434;2022-07-23T09:50:38;98791.44;;;34.67;25.86
61573;BME280;47465;43.094;12.434;2022-07-23T09:53:05;98797.19;;;34.87;26.36
61573;BME280;47465;43.094;12.434;2022-07-23T09:55:32;98798.03;;;34.87;26.84
61573;BME280;47465;43.094;12.434;2022-07-23T09:58:06;98787.72;;;34.38;26.35
61573;BME280;47465;43.094;12.434;2022-07-23T10:00:35;98794.13;;;34.60;26.60
61573;BME280;47465;43.094;12.434;2022-07-23T10:03:03;98783.00;;;34.53;26.21
61573;BME280;47465;43.094;12.434;2022-07-23T10:05:31;98792.91;;;34.84;25.97
61573;BME280;47465;43.094;12.434;2022-07-23T10:08:00;98760.72;;;34.98;25.66
61573;BME280;47465;43.094;12.434;2022-07-23T10:10:28;98774.53;;;35.20;25.56
61573;BME280;47465;43.094;12.434;2022-07-23T10:12:56;98765.66;;;35.24;26.17
61573;BME280;47465;43.094;12.434;2022-07-23T10:15:35;98766.97;;;35.07;25.39
61573;BME280;47465;43.094;12.434;2022-07-23T10:18:01;98772.91;;;35.25;26.01
61573;BME280;47465;43.094;12.434;2022-07-23T10:20:28;98768.28;;;35.32;25.85
61573;BME280;47465;43.094;12.434;2022-07-23T10:22:59;98759.59;;;35.35;25.22
61573;BME280;47465;43.094;12.434;2022-07-23T10:25:36;98770.94;;;35.47;25.48
61573;BME280;47465;43.094;12.434;2022-07-23T10:28:12;98764.19;;;35.28;25.44
61573;BME280;47465;43.094;12.434;2022-07-23T10:30:51;98775.69;;;35.60;25.89
61573;BME280;47465;43.094;12.434;2022-07-23T10:33:30;98747.66;;;35.63;25.50
61573;BME280;47465;43.094;12.434;2022-07-23T10:36:06;98740.66;;;35.67;25.88
61573;BME280;47465;43.094;12.434;2022-07-23T10:38:37;98727.97;;;35.79;25.85
61573;BME280;47465;43.094;12.434;2022-07-23T10:41:07;98746.97;;;35.89;25.04
61573;BME280;47465;43.094;12.434;2022-07-23T10:43:33;98736.25;;;35.73;26.02
61573;BME280;47465;43.094;12.434;2022-07-23T10:46:21;98759.31;;;35.93;26.33
61573;BME280;47465;43.094;12.434;2022-07-23T10:48:46;98749.56;;;35.34;25.92
61573;BME280;47465;43.094;12.434;2022-07-23T10:51:32;98728.44;;;35.55;26.46
61573;BME280;47465;43.094;12.434;2022-07-23T10:53:58;98732.59;;;35.37;25.88
61573;BME280;47465;43.094;12.434;2022-07-23T10:57:05;98728.31;;;34.85;26.42
61573;BME280;47465;43.094;12.434;2022-07-23T11:02:38;98724.75;;;35.13;26.64
61573;BME280;47465;43.094;12.434;2022-07-23T11:05:06;98726.69;;;35.47;25.88
61573;BME280;47465;43.094;12.434;2022-07-23T11:07:33;98710.09;;;35.47;25.89
61573;BME280;47465;43.094;12.434;2022-07-23T11:09:59;98717.97;;;35.78;25.62
61573;BME280;47465;43.094;12.434;2022-07-23T11:12:36;98715.97;;;36.07;25.28
61573;BME280;47465;43.094;12.434;2022-07-23T11:15:05;98701.50;;;36.12;24.99
61573;BME280;47465;43.094;12.434;2022-07-23T11:17:33;98708.91;;;35.98;23.63
61573;BME280;47465;43.094;12.434;2022-07-23T11:20:20;98709.41;;;36.15;22.96
61573;BME280;47465;43.094;12.434;2022-07-23T11:22:48;98704.97;;;36.21;21.95
61573;BME280;47465;43.094;12.434;2022-07-23T11:25:38;98695.56;;;36.15;22.77
61573;BME280;47465;43.094;12.434;2022-07-23T11:28:14;98695.81;;;36.27;24.31
61573;BME280;47465;43.094;12.434;2022-07-23T11:30:43;98686.91;;;36.51;24.56
61573;BME280;47465;43.094;12.434;2022-07-23T11:33:19;98690.59;;;36.72;23.56
61573;BME280;47465;43.094;12.434;2022-07-23T11:35:47;98652.66;;;36.72;23.51
61573;BME280;47465;43.094;12.434;2022-07-23T11:38:16;98677.59;;;36.79;23.98
61573;BME280;47465;43.094;12.434;2022-07-23T11:40:45;98668.44;;;36.85;23.68
61573;BME280;47465;43.094;12.434;2022-07-23T11:43:13;98655.63;;;36.71;24.29
61573;BME280;47465;43.094;12.434;2022-07-23T11:45:41;98656.03;;;36.54;22.97
61573;BME280;47465;43.094;12.434;2022-07-23T11:48:08;98646.03;;;36.67;23.96
61573;BME280;47465;43.094;12.434;2022-07-23T11:50:36;98660.34;;;36.84;23.07
61573;BME280;47465;43.094;12.434;2022-07-23T11:53:02;98657.97;;;37.00;22.62
61573;BME280;47465;43.094;12.434;2022-07-23T11:55:28;98654.34;;;37.20;22.48
61573;BME280;47465;43.094;12.434;2022-07-23T11:57:55;98649.44;;;37.29;22.19
61573;BME280;47465;43.094;12.434;2022-07-23T12:00:24;98635.38;;;36.84;22.65
61573;BME280;47465;43.094;12.434;2022-07-23T12:02:51;98621.97;;;36.87;22.41
61573;BME280;47465;43.094;12.434;2022-07-23T12:05:19;98636.63;;;37.21;21.90
61573;BME280;47465;43.094;12.434;2022-07-23T12:07:47;98650.91;;;37.38;21.52
61573;BME280;47465;43.094;12.434;2022-07-23T12:10:18;98617.66;;;37.18;21.46
61573;BME280;47465;43.094;12.434;2022-07-23T12:12:45;98614.28;;;37.09;21.46
61573;BME280;47465;43.094;12.434;2022-07-23T12:15:14;98607.63;;;37.04;21.30
61573;BME280;47465;43.094;12.434;2022-07-23T12:17:43;98620.22;;;37.13;21.69
61573;BME280;47465;43.094;12.434;2022-07-23T12:20:12;98627.88;;;37.31;21.75
61573;BME280;47465;43.094;12.434;2022-07-23T12:22:39;98608.25;;;37.26;21.92
61573;BME280;47465;43.094;12.434;2022-07-23T12:25:08;98617.13;;;37.54;21.89
61573;BME280;47465;43.094;12.434;2022-07-23T12:27:35;98611.94;;;36.53;22.18
61573;BME280;47465;43.094;12.434;2022-07-23T12:30:19;98611.69;;;37.01;22.57
61573;BME280;47465;43.094;12.434;2022-07-23T12:32:48;98615.91;;;37.30;21.82
61573;BME280;47465;43.094;12.434;2022-07-23T12:35:14;98598.69;;;37.15;21.55
61573;BME280;47465;43.094;12.434;2022-07-23T12:37:42;98599.25;;;37.44;21.41
61573;BME280;47465;43.094;12.434;2022-07-23T12:40:26;98595.22;;;37.39;21.28
61573;BME280;47465;43.094;12.434;2022-07-23T12:42:53;98612.81;;;37.72;21.25
61573;BME280;47465;43.094;12.434;2022-07-23T12:45:20;98591.97;;;37.56;21.25
61573;BME280;47465;43.094;12.434;2022-07-23T12:48:00;98587.88;;;37.52;21.39
61573;BME280;47465;43.094;12.434;2022-07-23T12:50:35;98603.44;;;37.66;21.51
61573;BME280;47465;43.094;12.434;2022-07-23T12:53:03;98594.03;;;37.74;21.12
61573;BME280;47465;43.094;12.434;2022-07-23T12:55:29;98596.00;;;37.53;21.25